createdAt,value
2023-04-26T00:01:51.483Z,99383.70
2023-04-26T00:06:54.898Z,99392.42
2023-04-26T00:11:58.006Z,99394.21
2023-04-26T00:17:02.953Z,99391.80
2023-04-26T00:22:06.644Z,99395.66
2023-04-26T00:27:10.864Z,99394.66
2023-04-26T00:32:13.970Z,99392.09
2023-04-26T00:37:17.138Z,99393.71
2023-04-26T00:42:20.143Z,99386.70
2023-04-26T00:47:29.742Z,99389.44
2023-04-26T00:52:32.818Z,99391.48
2023-04-26T00:57:35.928Z,99396.83
2023-04-26T01:02:39.179Z,99399.39
2023-04-26T01:07:42.447Z,99397.74
2023-04-26T01:12:46.062Z,99404.73
2023-04-26T01:17:49.935Z,99404.19
2023-04-26T01:22:52.898Z,99402.58
2023-04-26T01:27:55.826Z,99401.30
2023-04-26T01:32:58.832Z,99398.34
2023-04-26T01:38:02.022Z,99398.93
2023-04-26T01:43:05.023Z,99399.41
2023-04-26T01:48:09.115Z,99397.46
2023-04-26T01:53:12.466Z,99400.64
2023-04-26T01:58:15.577Z,99396.84
2023-04-26T02:03:18.592Z,99403.02
2023-04-26T02:08:21.591Z,99399.68
2023-04-26T02:13:24.901Z,99397.00
2023-04-26T02:18:27.809Z,99398.33
2023-04-26T02:23:30.713Z,99398.10
2023-04-26T02:28:33.620Z,99401.52
2023-04-26T02:33:36.830Z,99400.27
2023-04-26T02:38:39.846Z,99400.28
2023-04-26T02:43:42.745Z,99395.80
2023-04-26T02:48:45.757Z,99388.66
2023-04-26T02:53:48.758Z,99394.89
2023-04-26T02:58:52.711Z,99398.55
2023-04-26T03:03:56.364Z,99400.29
2023-04-26T03:08:59.510Z,99399.05
2023-04-26T03:14:02.523Z,99400.38
2023-04-26T03:19:05.732Z,99398.90
2023-04-26T03:24:08.838Z,99403.45
2023-04-26T03:29:12.977Z,99401.60
2023-04-26T03:34:15.992Z,99404.23
2023-04-26T03:39:19.299Z,99407.03
2023-04-26T03:44:22.304Z,99406.35
2023-04-26T03:49:25.411Z,99406.88
2023-04-26T03:54:28.318Z,99412.02
2023-04-26T03:59:34.703Z,99421.08
2023-04-26T04:04:37.943Z,99425.76
2023-04-26T04:09:41.017Z,99421.67
2023-04-26T04:14:43.927Z,99417.79
2023-04-26T04:19:46.825Z,99420.39
2023-04-26T04:24:49.837Z,99422.68
2023-04-26T04:29:56.257Z,99421.80
2023-04-26T04:34:59.840Z,99421.42
2023-04-26T04:40:03.057Z,99423.60
2023-04-26T04:45:07.030Z,99419.15
2023-04-26T04:50:10.297Z,99417.86
2023-04-26T04:55:13.448Z,99425.27
2023-04-26T05:00:17.382Z,99425.79
2023-04-26T05:05:20.902Z,99430.53
2023-04-26T05:10:23.859Z,99432.19
2023-04-26T05:15:27.232Z,99432.52
2023-04-26T05:20:31.222Z,99435.50
2023-04-26T05:25:37.589Z,99434.98
2023-04-26T05:30:40.994Z,99439.68
2023-04-26T05:35:44.013Z,99446.03
2023-04-26T05:40:48.455Z,99443.60
2023-04-26T05:45:56.638Z,99442.08
2023-04-26T05:50:59.625Z,99441.06
2023-04-26T05:56:02.694Z,99436.04
2023-04-26T06:01:06.416Z,99436.44
2023-04-26T06:06:09.829Z,99443.39
2023-04-26T06:11:12.846Z,99440.33
2023-04-26T06:16:16.290Z,99441.80
2023-04-26T06:21:20.079Z,99440.21
2023-04-26T06:26:23.097Z,99446.65
2023-04-26T06:31:26.430Z,99445.02
2023-04-26T06:36:29.716Z,99450.65
2023-04-26T06:41:32.831Z,99446.23
2023-04-26T06:46:35.959Z,99455.10
2023-04-26T06:51:39.247Z,99456.79
2023-04-26T06:56:42.153Z,99454.71
2023-04-26T07:01:45.307Z,99451.33
2023-04-26T07:06:49.117Z,99456.98
2023-04-26T07:11:52.313Z,99456.89
2023-04-26T07:16:55.308Z,99463.13
2023-04-26T07:21:58.525Z,99466.41
2023-04-26T07:27:02.240Z,99470.84
2023-04-26T07:32:05.759Z,99467.67
2023-04-26T07:37:09.381Z,99469.30
2023-04-26T07:42:12.692Z,99469.59
2023-04-26T07:47:16.119Z,99478.70
2023-04-26T07:52:19.321Z,99483.77
2023-04-26T07:57:22.427Z,99485.10
2023-04-26T08:02:33.231Z,99488.55
2023-04-26T08:07:46.872Z,99492.33
2023-04-26T08:12:50.390Z,99498.70
2023-04-26T08:17:53.625Z,99496.23
2023-04-26T08:22:57.447Z,99494.22
2023-04-26T08:28:01.001Z,99499.28
2023-04-26T08:33:04.086Z,99500.95
2023-04-26T08:38:07.475Z,99505.17
2023-04-26T08:43:11.294Z,99506.59
2023-04-26T08:48:16.404Z,99514.70
2023-04-26T08:53:20.076Z,99523.76
2023-04-26T08:58:23.898Z,99526.30
2023-04-26T09:03:27.597Z,99536.42
2023-04-26T09:08:30.940Z,99528.86
2023-04-26T09:13:34.157Z,99527.08
2023-04-26T09:18:49.993Z,99523.83
2023-04-26T09:24:01.900Z,99529.06
2023-04-26T09:29:19.163Z,99533.48
2023-04-26T09:34:22.537Z,99528.92
2023-04-26T09:39:32.905Z,99534.55
2023-04-26T09:44:36.211Z,99537.41
2023-04-26T09:49:50.978Z,99538.48
2023-04-26T09:54:55.133Z,99543.20
2023-04-26T09:59:58.357Z,99544.09
2023-04-26T10:05:03.138Z,99542.71
2023-04-26T10:10:07.977Z,99546.14
2023-04-26T10:15:12.196Z,99550.84
2023-04-26T10:20:18.466Z,99556.04
2023-04-26T10:25:21.876Z,99550.20
2023-04-26T10:30:25.102Z,99556.11
2023-04-26T10:35:30.506Z,99563.88
2023-04-26T10:40:40.442Z,99575.38
2023-04-26T10:45:45.904Z,99583.30
2023-04-26T10:51:13.470Z,99588.87
2023-04-26T10:56:25.890Z,99584.17
2023-04-26T11:01:30.845Z,99584.38
2023-04-26T11:06:58.065Z,99586.39
2023-04-26T11:12:01.141Z,99599.33
2023-04-26T11:17:08.395Z,99600.96
2023-04-26T11:22:11.549Z,99606.08
2023-04-26T11:27:14.759Z,99611.35
2023-04-26T11:32:20.326Z,99622.04
2023-04-26T11:37:23.431Z,99629.02
2023-04-26T11:42:26.952Z,99627.70
2023-04-26T11:47:31.597Z,99627.35
2023-04-26T11:52:34.705Z,99639.41
2023-04-26T11:57:37.914Z,99643.62
2023-04-26T12:02:48.282Z,99640.17
2023-04-26T12:07:57.038Z,99641.66
2023-04-26T12:13:00.476Z,99640.72
2023-04-26T12:18:11.806Z,99641.48
2023-04-26T12:23:17.456Z,99645.13
2023-04-26T12:28:20.977Z,99650.77
2023-04-26T12:33:25.692Z,99658.36
2023-04-26T12:38:28.899Z,99671.92
2023-04-26T12:43:32.528Z,99675.35
2023-04-26T12:48:36.403Z,99681.67
2023-04-26T12:53:39.462Z,99682.42
2023-04-26T12:58:42.773Z,99680.25
2023-04-26T13:03:46.685Z,99677.22
2023-04-26T13:08:50.017Z,99682.41
2023-04-26T13:13:53.090Z,99682.98
2023-04-26T13:18:56.571Z,99686.90
2023-04-26T13:23:59.751Z,99692.91
2023-04-26T13:29:04.520Z,99689.12
2023-04-26T13:34:07.824Z,99689.23
2023-04-26T13:39:11.122Z,99693.52
2023-04-26T13:44:15.865Z,99698.61
2023-04-26T13:49:18.979Z,99698.56
2023-04-26T13:54:22.803Z,99693.00
2023-04-26T13:59:27.282Z,99697.39
2023-04-26T14:04:31.156Z,99694.21
2023-04-26T14:09:34.690Z,99700.27
2023-04-26T14:14:38.006Z,99706.04
2023-04-26T14:19:42.608Z,99716.20
2023-04-26T14:24:46.374Z,99723.71
2023-04-26T14:29:49.807Z,99723.99
2023-04-26T14:34:53.012Z,99728.09
2023-04-26T14:39:56.416Z,99730.19
2023-04-26T14:45:00.353Z,99735.41
2023-04-26T14:50:04.728Z,99739.27
2023-04-26T14:55:08.864Z,99735.75
2023-04-26T15:00:15.636Z,99737.31
2023-04-26T15:05:18.936Z,99741.90
2023-04-26T15:10:22.134Z,99742.83
2023-04-26T15:15:25.247Z,99748.92
2023-04-26T15:20:28.597Z,99759.41
2023-04-26T15:25:35.191Z,99761.84
2023-04-26T15:30:38.252Z,99757.84
2023-04-26T15:35:41.770Z,99760.21
2023-04-26T15:40:45.291Z,99762.11
2023-04-26T15:45:50.066Z,99755.70
2023-04-26T15:50:57.172Z,99759.05
2023-04-26T15:56:00.480Z,99765.55
2023-04-26T16:01:03.807Z,99771.08
2023-04-26T16:06:08.828Z,99774.63
2023-04-26T16:11:11.937Z,99780.40
2023-04-26T16:16:15.179Z,99780.52
2023-04-26T16:21:18.252Z,99776.89
2023-04-26T16:26:22.389Z,99779.95
2023-04-26T16:31:26.709Z,99787.63
2023-04-26T16:36:30.148Z,99791.33
2023-04-26T16:41:33.574Z,99796.27
2023-04-26T16:46:37.198Z,99807.92
2023-04-26T16:51:41.115Z,99814.75
2023-04-26T16:56:44.221Z,99812.94
2023-04-26T17:01:50.845Z,99814.77
2023-04-26T17:06:55.041Z,99821.46
2023-04-26T17:11:58.365Z,99832.52
2023-04-26T17:17:01.460Z,99836.58
2023-04-26T17:22:06.418Z,99842.02
2023-04-26T17:27:09.538Z,99850.76
2023-04-26T17:32:12.777Z,99852.69
2023-04-26T17:37:15.847Z,99855.48
2023-04-26T17:42:19.062Z,99861.87
2023-04-26T17:47:22.481Z,99866.70
2023-04-26T17:52:25.690Z,99874.63
2023-04-26T17:57:28.791Z,99875.46
2023-04-26T18:02:32.134Z,99882.55
2023-04-26T18:07:35.729Z,99890.29
2023-04-26T18:12:38.931Z,99898.89
2023-04-26T18:17:42.118Z,99902.63
2023-04-26T18:22:45.253Z,99905.83
2023-04-26T18:27:49.103Z,99912.27
2023-04-26T18:32:53.374Z,99916.31
2023-04-26T18:37:57.352Z,99923.08
2023-04-26T18:43:00.675Z,99931.06
2023-04-26T18:48:04.204Z,99934.19
2023-04-26T18:53:07.391Z,99933.33
2023-04-26T18:58:10.952Z,99942.33
2023-04-26T19:03:14.174Z,99948.23
2023-04-26T19:08:17.825Z,99959.48
2023-04-26T19:13:21.115Z,99957.91
2023-04-26T19:18:24.385Z,99960.65
2023-04-26T19:23:27.593Z,99966.33
2023-04-26T19:28:31.275Z,99969.90
2023-04-26T19:33:34.318Z,99969.46
2023-04-26T19:38:37.524Z,99969.02
2023-04-26T19:43:40.746Z,99969.95
2023-04-26T19:48:43.951Z,99971.22
2023-04-26T19:53:47.165Z,99972.15
2023-04-26T19:58:50.377Z,99976.70
2023-04-26T20:03:53.772Z,99979.20
2023-04-26T20:08:57.015Z,99980.45
2023-04-26T20:14:00.416Z,99977.03
2023-04-26T20:19:03.726Z,99975.70
2023-04-26T20:24:07.309Z,99980.98
2023-04-26T20:29:10.355Z,99985.05
2023-04-26T20:34:13.362Z,99989.59
2023-04-26T20:39:16.770Z,99990.20
2023-04-26T20:44:19.877Z,99997.89
2023-04-26T20:49:23.269Z,100003.50
2023-04-26T20:54:26.409Z,99999.46
2023-04-26T20:59:29.518Z,100002.30
2023-04-26T21:04:32.886Z,100004.31
2023-04-26T21:09:36.150Z,100006.31
2023-04-26T21:14:39.253Z,100007.63
2023-04-26T21:19:42.853Z,100010.11
2023-04-26T21:24:45.984Z,100014.30
2023-04-26T21:29:48.989Z,100014.89
2023-04-26T21:34:52.097Z,100019.41
2023-04-26T21:39:55.108Z,100027.69
2023-04-26T21:44:58.113Z,100036.30
2023-04-26T21:50:01.336Z,100037.52
2023-04-26T21:55:04.917Z,100041.06
2023-04-26T22:00:11.814Z,100043.03
2023-04-26T22:05:14.745Z,100049.16
2023-04-26T22:10:18.242Z,100051.67
2023-04-26T22:15:21.583Z,100055.02
2023-04-26T22:20:24.728Z,100057.20
2023-04-26T22:25:27.692Z,100059.33
2023-04-26T22:30:30.635Z,100057.16
2023-04-26T22:35:33.618Z,100059.97
2023-04-26T22:40:36.817Z,100062.95
2023-04-26T22:45:39.838Z,100064.05
2023-04-26T22:50:43.147Z,100066.55
2023-04-26T22:55:46.450Z,100066.11
2023-04-26T23:00:49.473Z,100066.88
2023-04-26T23:05:52.571Z,100069.38
2023-04-26T23:10:55.474Z,100070.17
2023-04-26T23:15:58.480Z,100076.14
2023-04-26T23:21:01.698Z,100077.38
2023-04-26T23:26:08.241Z,100074.98
2023-04-26T23:31:11.546Z,100076.61
2023-04-26T23:36:14.600Z,100073.31
2023-04-26T23:41:17.502Z,100079.81
2023-04-26T23:46:20.548Z,100073.73
2023-04-26T23:51:23.621Z,100077.48
2023-04-26T23:56:26.623Z,100083.04
